Skip Navigation Links Skip Navigation Links

Current Weather

Kenosha Regional, Kenosha, Wis.

For information only: do not use for flight planning or navigation.
Latest weather
Observation time Friday, February 28, 2020 5:53 AM CST
Local time Friday, February 28, 2020 6:46 AM CST
Flight conditions Visual Meteorological Conditions
Winds
Wind direction West-Northwest (290°)
Wind speed 8 mph
Visibility 10 mi.
Sky condition
Ceiling unlimited
Sky clear
Temperature 16°F
Dewpoint 5°F
Altimeter 30.01 in.Hg
Pressure change last 3 hours0.00 in.Hg
Pressure rising more quickly
Derived measurements
Relative humidity 61%
Wind chill 5°F
Density altitude -2306 ft.
Sea-level pressure 30.04 in.Hg
Climate data
Temperature minimum, last 6 hours 15°F
Temperature maximum, last 6 hours 19°F
Remarks
Fully automated report.
Automated weather observing station with precipitation discriminator.
METAR KENW 281153Z AUTO 29007KT 10SM CLR M09/M15 A3001 RMK AO2 SLP173 T10891150 11072 21094 53000

Settings

Location code

InnerDrive.Weather 4.0.6770.0 Release CLR 4.0.30319.42000
Copyright ©2018 Inner Drive Technology. All rights reserved. Portions Copyright ©1986-2018 David Braverman.

Find weather

Site navigation


Skip Navigation Links

Place info

Page info

PayPal - The safer, easier way to pay online!

Return home.

Copyright ©2020 Inner Drive Technology. Purveyors of fine, hand-crafted computer software. Page printed 2020-02-28T12:46:19 UTC.